Time;durP1;ratioP1;P1;durP2;ratioP2;P2;SDS_P1;SDS_P2;PMS_P1;PMS_P2;Temp;Humidity;BMP_temperature;BMP_pressure;BME280_temperature;BME280_humidity;BME280_pressure;Samples;Min_cycle;Max_cycle;Signal;HPM_P1;HPM_P2
2021/09/10 00:01:20;;;;;;;8.93;7.88;;;19.90;95.80;;;;;;4881786;29;20104;-84
2021/09/10 00:03:46;;;;;;;8.63;7.82;;;19.80;95.80;;;;;;4915583;29;20036;-85
2021/09/10 00:06:12;;;;;;;8.48;7.70;;;19.80;95.90;;;;;;4901963;29;20032;-85
2021/09/10 00:08:39;;;;;;;9.10;8.20;;;19.80;95.90;;;;;;4902520;29;20084;-86
2021/09/10 00:11:04;;;;;;;8.85;8.00;;;19.80;96.00;;;;;;4902614;29;20036;-85
2021/09/10 00:13:30;;;;;;;8.77;7.85;;;19.70;96.00;;;;;;4903062;29;20101;-85
2021/09/10 00:15:55;;;;;;;9.35;8.05;;;19.70;96.10;;;;;;4902293;29;20036;-85
2021/09/10 00:18:22;;;;;;;9.60;8.30;;;19.60;96.10;;;;;;4901147;29;20028;-85
2021/09/10 00:20:49;;;;;;;8.95;7.63;;;19.60;96.20;;;;;;4895707;29;20029;-85
2021/09/10 00:23:14;;;;;;;9.32;8.43;;;19.60;96.20;;;;;;4880513;29;20465;-85
2021/09/10 00:25:40;;;;;;;9.63;8.63;;;19.50;96.20;;;;;;4879360;29;20053;-85
2021/09/10 00:28:06;;;;;;;11.30;8.75;;;19.50;96.30;;;;;;4926582;29;20027;-85
2021/09/10 00:30:32;;;;;;;10.60;8.80;;;19.50;96.30;;;;;;4924809;29;20025;-86
2021/09/10 00:32:58;;;;;;;9.63;8.70;;;19.40;96.30;;;;;;4893330;29;20185;-85
2021/09/10 00:35:23;;;;;;;13.32;9.23;;;19.40;96.40;;;;;;4891655;29;20409;-85
2021/09/10 00:37:49;;;;;;;9.82;8.80;;;19.40;96.40;;;;;;4874997;29;20039;-85
2021/09/10 00:40:14;;;;;;;11.07;9.43;;;19.30;96.50;;;;;;4870735;29;20370;-85
2021/09/10 00:42:40;;;;;;;9.70;8.80;;;19.30;96.50;;;;;;4914650;29;20029;-84
2021/09/10 00:45:06;;;;;;;9.88;8.98;;;19.30;96.60;;;;;;4882534;29;20059;-84
2021/09/10 00:47:32;;;;;;;10.32;9.20;;;19.30;96.60;;;;;;4882795;29;20028;-85
2021/09/10 00:49:58;;;;;;;11.38;9.40;;;19.30;96.60;;;;;;4898453;29;20036;-84
2021/09/10 00:52:24;;;;;;;10.73;9.57;;;19.30;96.70;;;;;;4899205;29;20036;-85
2021/09/10 00:54:50;;;;;;;10.18;9.00;;;19.20;96.70;;;;;;4898959;29;20500;-85
2021/09/10 00:57:16;;;;;;;10.15;9.15;;;19.20;96.80;;;;;;4914407;29;20028;-85
2021/09/10 00:59:41;;;;;;;11.02;9.52;;;19.20;96.80;;;;;;4897922;29;20445;-85
2021/09/10 01:02:07;;;;;;;10.82;9.73;;;19.20;96.80;;;;;;4882286;29;20040;-85
2021/09/10 01:04:33;;;;;;;11.52;10.38;;;19.20;96.80;;;;;;4882126;29;20429;-85
2021/09/10 01:07:00;;;;;;;12.30;10.35;;;19.20;96.90;;;;;;4866741;29;20063;-85
2021/09/10 01:09:27;;;;;;;12.45;10.30;;;19.20;96.90;;;;;;4882616;29;20032;-84
2021/09/10 01:11:53;;;;;;;13.02;10.50;;;19.20;97.00;;;;;;4914094;29;20025;-86
2021/09/10 01:14:20;;;;;;;12.07;10.88;;;19.20;97.00;;;;;;4866637;29;20033;-85
2021/09/10 01:16:48;;;;;;;13.57;12.30;;;19.20;97.00;;;;;;4913958;29;20138;-84
2021/09/10 01:19:28;;;;;;;12.27;11.07;;;19.20;97.00;;;;;;4898017;29;20452;-85
2021/09/10 01:21:57;;;;;;;13.13;11.75;;;19.20;97.00;;;;;;4913883;29;20438;-84
2021/09/10 01:25:00;;;;;;;11.75;10.55;;;19.10;97.10;;;;;;4913805;29;20401;-85
2021/09/10 01:27:25;;;;;;;11.13;10.13;;;19.10;97.10;;;;;;4913535;29;20040;-85
2021/09/10 01:29:51;;;;;;;10.23;9.23;;;19.10;97.20;;;;;;4882581;29;20476;-84
2021/09/10 01:32:17;;;;;;;11.20;10.10;;;19.10;97.20;;;;;;4898807;29;20528;-85
2021/09/10 01:34:43;;;;;;;13.98;10.93;;;19.10;97.20;;;;;;4882442;29;20452;-85
2021/09/10 01:37:08;;;;;;;11.98;10.65;;;19.10;97.20;;;;;;4882416;29;20040;-85
2021/09/10 01:39:34;;;;;;;12.20;10.93;;;19.10;97.30;;;;;;4882894;29;20370;-86
2021/09/10 01:42:00;;;;;;;11.85;10.73;;;19.10;97.30;;;;;;4866673;29;20396;-85
2021/09/10 01:44:26;;;;;;;11.73;10.52;;;19.10;97.30;;;;;;4872440;29;20059;-85
2021/09/10 01:46:51;;;;;;;11.98;10.73;;;19.10;97.30;;;;;;4882994;29;20469;-87
2021/09/10 01:49:17;;;;;;;12.25;10.50;;;19.10;97.30;;;;;;4885155;29;20441;-85
2021/09/10 01:51:43;;;;;;;11.40;9.10;;;19.10;97.30;;;;;;4884864;29;20037;-85
2021/09/10 01:54:09;;;;;;;11.30;10.07;;;19.10;97.30;;;;;;4876579;29;20060;-86
2021/09/10 01:56:35;;;;;;;10.85;9.73;;;19.20;97.30;;;;;;4892907;29;20040;-85
2021/09/10 01:59:01;;;;;;;15.15;10.90;;;19.10;97.30;;;;;;4940191;29;20039;-85
2021/09/10 02:01:31;;;;;;;11.02;9.75;;;19.10;97.30;;;;;;4955789;28;20041;-85
2021/09/10 02:03:58;;;;;;;11.98;10.75;;;19.10;97.40;;;;;;4946162;28;20115;-85
2021/09/10 02:06:23;;;;;;;11.27;9.95;;;19.10;97.40;;;;;;4905827;29;20032;-85
2021/09/10 02:08:49;;;;;;;11.05;9.95;;;19.10;97.40;;;;;;4917981;29;20043;-85
2021/09/10 02:11:15;;;;;;;11.13;9.90;;;19.10;97.50;;;;;;4917756;29;20039;-85
2021/09/10 02:13:41;;;;;;;12.20;10.55;;;19.10;97.50;;;;;;4932956;29;20036;-85
2021/09/10 02:16:08;;;;;;;13.55;10.45;;;19.20;97.50;;;;;;4886093;29;20087;-85
2021/09/10 02:18:34;;;;;;;12.25;11.05;;;19.20;97.40;;;;;;4900862;29;20573;-85
2021/09/10 02:21:00;;;;;;;13.38;12.02;;;19.20;97.40;;;;;;4900607;29;20063;-85
2021/09/10 02:23:26;;;;;;;11.90;10.57;;;19.30;97.40;;;;;;4900255;29;20096;-86
2021/09/10 02:25:51;;;;;;;13.25;10.25;;;19.30;97.40;;;;;;4900911;29;20028;-85
2021/09/10 02:28:17;;;;;;;14.95;11.38;;;19.30;97.30;;;;;;4904078;29;20028;-85
2021/09/10 02:30:43;;;;;;;11.88;10.65;;;19.40;97.30;;;;;;4905044;29;20376;-85
2021/09/10 02:33:09;;;;;;;14.65;10.10;;;19.40;97.50;;;;;;4904799;29;20050;-86
2021/09/10 02:35:34;;;;;;;11.95;10.45;;;19.40;97.20;;;;;;4904624;29;20123;-84
2021/09/10 02:38:00;;;;;;;11.23;10.07;;;19.50;97.20;;;;;;4872876;29;20062;-86
2021/09/10 02:40:26;;;;;;;11.52;10.32;;;19.50;97.20;;;;;;4919224;29;20059;-85
2021/09/10 02:42:52;;;;;;;12.75;10.55;;;19.40;97.10;;;;;;4903831;29;20384;-85
2021/09/10 02:45:17;;;;;;;11.48;9.45;;;19.40;97.10;;;;;;4904012;29;20028;-85
2021/09/10 02:47:43;;;;;;;12.43;10.35;;;19.50;97.20;;;;;;4903777;29;20539;-85
2021/09/10 02:50:09;;;;;;;12.75;10.00;;;19.50;97.10;;;;;;4919908;29;20040;-85
2021/09/10 02:52:36;;;;;;;11.07;9.63;;;19.50;97.10;;;;;;4935149;29;20032;-85
2021/09/10 02:55:04;;;;;;;10.88;9.68;;;19.50;97.10;;;;;;4908464;29;20143;-85
2021/09/10 02:57:29;;;;;;;12.90;9.73;;;19.60;97.10;;;;;;4916096;29;20033;-85
2021/09/10 02:59:55;;;;;;;11.23;10.15;;;19.60;97.10;;;;;;4884745;29;20032;-85
2021/09/10 03:02:21;;;;;;;11.88;10.43;;;19.60;97.20;;;;;;4901337;29;20037;-85
2021/09/10 03:04:47;;;;;;;11.48;10.30;;;19.60;97.00;;;;;;4884835;29;20065;-86
2021/09/10 03:07:16;;;;;;;10.88;9.65;;;19.60;97.00;;;;;;4869776;29;20052;-85
2021/09/10 03:09:42;;;;;;;10.77;9.65;;;19.70;97.00;;;;;;4901200;29;20080;-86
2021/09/10 03:12:09;;;;;;;9.68;8.77;;;19.70;96.90;;;;;;4884345;29;20536;-86
2021/09/10 03:14:35;;;;;;;10.68;9.60;;;19.70;96.90;;;;;;4869690;29;20207;-85
2021/09/10 03:17:00;;;;;;;10.65;9.48;;;19.70;96.90;;;;;;4915983;29;20111;-86
2021/09/10 03:19:27;;;;;;;10.18;8.90;;;19.60;96.90;;;;;;4915629;29;20080;-86
2021/09/10 03:21:53;;;;;;;10.20;9.20;;;19.60;96.90;;;;;;4915687;29;20032;-87
2021/09/10 03:24:19;;;;;;;11.52;9.43;;;19.60;96.90;;;;;;4899675;29;20052;-86
2021/09/10 03:26:45;;;;;;;11.20;9.45;;;19.60;96.80;;;;;;4899724;29;20440;-86
2021/09/10 03:29:12;;;;;;;10.10;9.00;;;19.50;96.90;;;;;;4884660;29;20033;-85
2021/09/10 03:31:38;;;;;;;13.23;9.65;;;19.50;96.90;;;;;;4885907;29;20033;-86
2021/09/10 03:34:04;;;;;;;10.40;9.32;;;19.40;96.90;;;;;;4916883;29;20028;-85
2021/09/10 03:36:30;;;;;;;9.45;8.57;;;19.40;97.00;;;;;;4899592;29;20500;-86
2021/09/10 03:38:56;;;;;;;10.30;9.23;;;19.40;97.00;;;;;;4884362;29;20033;-86
2021/09/10 03:41:21;;;;;;;9.82;8.82;;;19.30;97.00;;;;;;4914981;29;20084;-86
2021/09/10 03:43:52;;;;;;;10.57;9.05;;;19.30;97.00;;;;;;4899603;29;20044;-86
2021/09/10 03:46:18;;;;;;;10.25;9.23;;;19.20;97.10;;;;;;4884763;29;20052;-85
2021/09/10 03:48:44;;;;;;;10.63;9.63;;;19.20;97.10;;;;;;4884369;29;20040;-85
2021/09/10 03:51:10;;;;;;;10.35;9.38;;;19.20;97.20;;;;;;4899112;29;20028;-85
2021/09/10 03:53:36;;;;;;;9.85;8.88;;;19.10;97.20;;;;;;4868517;29;20123;-85
2021/09/10 03:56:01;;;;;;;9.55;8.65;;;19.10;97.20;;;;;;4883790;29;20130;-85
2021/09/10 03:58:27;;;;;;;10.25;9.25;;;19.10;97.30;;;;;;4883857;29;20475;-85
2021/09/10 04:00:53;;;;;;;10.98;9.88;;;19.10;97.30;;;;;;4883744;29;20028;-85
2021/09/10 04:03:18;;;;;;;10.90;9.82;;;19.00;97.30;;;;;;4883416;29;20096;-86
2021/09/10 04:05:44;;;;;;;10.82;9.63;;;19.00;97.40;;;;;;4915507;29;20083;-85
2021/09/10 04:08:10;;;;;;;10.43;9.32;;;19.00;97.40;;;;;;4868224;29;20465;-85
2021/09/10 04:10:35;;;;;;;11.07;10.00;;;19.00;97.40;;;;;;4899480;29;20043;-86
2021/09/10 04:13:01;;;;;;;10.68;9.65;;;19.00;97.50;;;;;;4868131;29;20038;-86
2021/09/10 04:15:27;;;;;;;10.45;9.27;;;18.90;97.50;;;;;;4914796;29;20043;-86
2021/09/10 04:17:53;;;;;;;11.65;10.00;;;18.90;97.50;;;;;;4899211;29;20025;-86
2021/09/10 04:20:19;;;;;;;10.55;9.43;;;18.90;97.60;;;;;;4883941;29;20048;-85
2021/09/10 04:22:44;;;;;;;11.80;9.57;;;18.90;97.60;;;;;;4914599;29;20104;-85
2021/09/10 04:25:10;;;;;;;10.85;8.48;;;18.80;97.60;;;;;;4868316;29;20127;-86
2021/09/10 04:27:36;;;;;;;9.85;8.80;;;18.90;97.70;;;;;;4915295;29;20104;-86
2021/09/10 04:30:03;;;;;;;10.75;9.63;;;18.80;97.70;;;;;;4900687;29;20489;-86
2021/09/10 04:32:30;;;;;;;10.63;9.63;;;18.80;97.70;;;;;;4901106;29;20040;-85
2021/09/10 04:34:56;;;;;;;11.77;9.18;;;18.80;97.70;;;;;;4894323;29;20033;-86
2021/09/10 04:37:23;;;;;;;10.57;9.55;;;18.80;97.70;;;;;;4889723;29;20047;-85
2021/09/10 04:39:48;;;;;;;12.00;10.80;;;18.70;97.70;;;;;;4906164;29;20025;-85
2021/09/10 04:42:14;;;;;;;10.65;9.55;;;18.70;97.80;;;;;;4906098;29;20036;-86
2021/09/10 04:44:40;;;;;;;11.25;10.15;;;18.70;97.80;;;;;;4922407;29;20017;-85
2021/09/10 04:47:06;;;;;;;11.65;10.55;;;18.70;97.80;;;;;;4905941;29;20028;-86
2021/09/10 04:49:31;;;;;;;12.50;10.98;;;18.70;97.80;;;;;;4887938;29;20032;-86
2021/09/10 04:51:57;;;;;;;13.20;10.50;;;18.70;97.80;;;;;;4918091;29;20041;-86
2021/09/10 04:54:23;;;;;;;11.70;10.57;;;18.70;97.80;;;;;;4890909;29;20063;-85
2021/09/10 04:56:48;;;;;;;12.07;10.88;;;18.70;97.90;;;;;;4918211;29;20040;-85
2021/09/10 04:59:14;;;;;;;13.57;11.48;;;18.60;97.90;;;;;;4932924;29;20107;-86
2021/09/10 05:01:40;;;;;;;12.43;11.13;;;18.70;97.90;;;;;;4917610;29;20020;-86
2021/09/10 05:04:06;;;;;;;12.73;11.52;;;18.70;97.90;;;;;;4916489;29;20028;-85
2021/09/10 05:06:31;;;;;;;11.52;10.32;;;18.70;97.90;;;;;;4886475;29;20030;-86
2021/09/10 05:08:57;;;;;;;13.63;11.15;;;18.70;97.90;;;;;;4911311;29;20405;-85
2021/09/10 05:11:23;;;;;;;11.30;10.20;;;18.70;97.90;;;;;;4905851;29;20111;-85
2021/09/10 05:13:49;;;;;;;11.35;10.15;;;18.70;98.00;;;;;;4920460;29;20392;-85
2021/09/10 05:16:15;;;;;;;13.55;11.40;;;18.80;98.00;;;;;;4874232;29;20028;-86
2021/09/10 05:18:40;;;;;;;13.10;11.80;;;18.90;97.90;;;;;;4887438;29;20032;-85
2021/09/10 05:21:06;;;;;;;12.65;11.35;;;18.90;97.90;;;;;;4919820;29;20456;-85
2021/09/10 05:23:32;;;;;;;10.82;9.88;;;19.00;97.80;;;;;;4871827;29;20103;-85
2021/09/10 05:25:58;;;;;;;11.80;10.70;;;19.00;97.70;;;;;;4918313;29;20032;-85
2021/09/10 05:28:24;;;;;;;11.60;10.50;;;19.10;97.70;;;;;;4902333;29;20099;-83
2021/09/10 05:30:51;;;;;;;12.18;10.98;;;19.30;97.60;;;;;;4904103;29;20460;-84
2021/09/10 05:33:16;;;;;;;12.43;11.27;;;19.50;97.60;;;;;;4936009;29;20028;-84
2021/09/10 05:35:43;;;;;;;11.57;10.43;;;19.80;97.40;;;;;;4919146;29;20056;-84
2021/09/10 05:38:09;;;;;;;13.43;10.35;;;20.40;96.90;;;;;;4919402;29;20028;-85
2021/09/10 05:40:35;;;;;;;10.63;8.80;;;21.00;95.60;;;;;;4934080;29;20035;-85
2021/09/10 05:43:01;;;;;;;9.18;8.38;;;21.50;94.50;;;;;;4917380;29;20127;-85
2021/09/10 05:45:27;;;;;;;9.40;7.80;;;22.10;93.30;;;;;;4901458;29;20510;-85
2021/09/10 05:47:53;;;;;;;7.43;6.88;;;22.60;92.20;;;;;;4901958;29;20063;-85
2021/09/10 05:50:19;;;;;;;7.72;6.97;;;23.20;90.90;;;;;;4902415;29;20535;-86
2021/09/10 05:52:45;;;;;;;5.88;5.38;;;23.70;88.80;;;;;;4918327;29;20032;-85
2021/09/10 05:55:11;;;;;;;9.15;5.38;;;23.80;86.60;;;;;;4922266;29;20052;-85
2021/09/10 05:57:37;;;;;;;6.15;5.55;;;23.60;85.80;;;;;;4884631;29;20088;-84
2021/09/10 06:00:04;;;;;;;5.97;5.47;;;23.30;86.70;;;;;;4885320;29;20508;-86
2021/09/10 06:02:30;;;;;;;5.68;4.97;;;23.00;87.50;;;;;;4888025;29;20481;-85
2021/09/10 06:04:55;;;;;;;6.43;5.40;;;22.70;88.20;;;;;;4904666;29;20036;-85
2021/09/10 06:07:21;;;;;;;6.13;5.53;;;22.50;88.90;;;;;;4872787;29;20045;-85
2021/09/10 06:09:47;;;;;;;6.25;5.65;;;22.30;89.60;;;;;;4870477;29;20033;-85
2021/09/10 06:12:13;;;;;;;6.43;5.45;;;22.30;90.20;;;;;;4903092;29;20132;-85
2021/09/10 06:14:39;;;;;;;6.47;5.65;;;22.60;90.30;;;;;;4917878;29;20087;-85
2021/09/10 06:17:05;;;;;;;5.82;5.32;;;23.20;88.20;;;;;;4887656;29;20033;-84
2021/09/10 06:19:31;;;;;;;6.35;5.68;;;23.20;86.80;;;;;;4872719;29;20176;-86
2021/09/10 06:21:57;;;;;;;5.35;4.85;;;23.10;86.90;;;;;;4870729;29;20502;-84
2021/09/10 06:24:23;;;;;;;5.45;4.95;;;23.20;86.50;;;;;;4870899;29;20040;-84
2021/09/10 06:26:49;;;;;;;5.32;4.88;;;23.20;86.50;;;;;;4886013;29;20088;-85
2021/09/10 06:29:16;;;;;;;5.60;4.95;;;23.00;86.70;;;;;;4901669;29;20064;-84
2021/09/10 06:31:42;;;;;;;6.93;4.55;;;22.80;87.20;;;;;;4916838;29;20041;-84
2021/09/10 06:34:08;;;;;;;5.68;5.18;;;22.60;87.70;;;;;;4885372;29;20199;-85
2021/09/10 06:36:34;;;;;;;6.43;5.53;;;22.50;88.10;;;;;;4885187;29;20088;-84
2021/09/10 06:39:00;;;;;;;7.05;4.80;;;22.40;88.60;;;;;;4900722;29;20029;-84
2021/09/10 06:41:26;;;;;;;5.15;4.75;;;22.30;89.00;;;;;;4869795;29;20040;-84
2021/09/10 06:43:52;;;;;;;5.68;4.88;;;22.20;89.40;;;;;;4869509;29;20045;-84
2021/09/10 06:46:18;;;;;;;6.35;5.07;;;22.10;90.00;;;;;;4884920;29;20032;-84
2021/09/10 06:48:44;;;;;;;5.30;4.47;;;22.10;90.10;;;;;;4903963;29;20385;-85
2021/09/10 06:51:10;;;;;;;6.18;5.20;;;22.10;90.20;;;;;;4888679;29;20176;-86
2021/09/10 06:53:35;;;;;;;8.02;5.40;;;22.00;90.30;;;;;;4874547;29;20451;-87
2021/09/10 06:56:01;;;;;;;7.20;5.85;;;21.90;90.40;;;;;;4902925;29;20140;-85
2021/09/10 06:58:28;;;;;;;6.68;5.13;;;21.90;90.40;;;;;;4902273;29;20115;-86
2021/09/10 07:00:53;;;;;;;6.03;5.38;;;21.90;90.70;;;;;;4902134;29;20043;-85
2021/09/10 07:03:19;;;;;;;8.50;6.32;;;21.90;90.50;;;;;;4903492;29;20041;-85
2021/09/10 07:05:45;;;;;;;7.55;6.57;;;21.90;90.60;;;;;;4902257;29;20037;-85
2021/09/10 07:08:11;;;;;;;6.90;6.07;;;21.80;90.50;;;;;;4886286;29;20029;-85
2021/09/10 07:10:37;;;;;;;6.40;5.80;;;21.80;90.70;;;;;;4917567;29;20028;-85
2021/09/10 07:13:03;;;;;;;9.52;7.13;;;21.80;91.00;;;;;;4884667;29;20465;-85
2021/09/10 07:15:29;;;;;;;7.55;6.75;;;21.80;90.80;;;;;;4869539;29;20032;-85
2021/09/10 07:17:55;;;;;;;11.50;7.10;;;21.80;90.70;;;;;;4887533;29;20028;-86
2021/09/10 07:20:21;;;;;;;7.75;5.80;;;21.90;91.00;;;;;;4873710;29;20051;-86
2021/09/10 07:22:46;;;;;;;9.50;7.45;;;21.90;90.90;;;;;;4903192;29;20497;-85
2021/09/10 07:25:12;;;;;;;8.43;6.40;;;21.90;90.60;;;;;;4871218;29;20143;-85
2021/09/10 07:27:38;;;;;;;7.63;6.82;;;21.80;90.80;;;;;;4888553;29;20477;-86
2021/09/10 07:30:04;;;;;;;7.28;6.57;;;21.90;90.90;;;;;;4905532;29;20028;-85
2021/09/10 07:32:30;;;;;;;7.85;7.05;;;22.00;90.70;;;;;;4921212;29;20036;-86
2021/09/10 07:34:56;;;;;;;10.25;6.95;;;22.10;90.70;;;;;;4904219;29;20093;-84
2021/09/10 07:37:27;;;;;;;9.40;6.60;;;22.20;90.30;;;;;;4906258;29;20052;-84
2021/09/10 07:39:56;;;;;;;8.52;6.70;;;22.30;90.20;;;;;;4925083;29;20467;-84
2021/09/10 07:42:22;;;;;;;7.57;6.68;;;22.60;90.10;;;;;;4896344;29;20056;-85
2021/09/10 07:44:49;;;;;;;9.95;6.55;;;22.80;89.30;;;;;;4922131;29;20064;-84
2021/09/10 07:47:15;;;;;;;6.70;6.03;;;22.90;88.30;;;;;;4887371;29;20028;-84
2021/09/10 07:49:42;;;;;;;7.00;6.30;;;23.20;88.40;;;;;;4919576;29;20061;-85
2021/09/10 07:52:08;;;;;;;6.85;6.10;;;23.30;86.50;;;;;;4872078;29;20092;-83
2021/09/10 07:54:33;;;;;;;7.30;6.10;;;23.60;86.10;;;;;;4894560;29;20048;-84
2021/09/10 07:57:00;;;;;;;6.07;5.47;;;23.60;84.60;;;;;;4907092;29;20148;-83
2021/09/10 07:59:26;;;;;;;6.97;6.25;;;23.60;85.50;;;;;;4920960;29;20151;-86
2021/09/10 08:01:52;;;;;;;6.35;5.75;;;23.60;85.70;;;;;;4939278;29;20036;-85
2021/09/10 08:04:18;;;;;;;6.78;6.13;;;23.70;85.60;;;;;;4938923;29;20028;-84
2021/09/10 08:06:44;;;;;;;6.57;5.75;;;23.70;84.80;;;;;;4920254;29;20131;-85
2021/09/10 08:09:10;;;;;;;6.63;5.90;;;23.70;85.30;;;;;;4938709;29;20170;-86
2021/09/10 08:11:36;;;;;;;5.05;4.55;;;23.80;85.50;;;;;;4922030;29;20040;-84
2021/09/10 08:14:07;;;;;;;4.93;4.43;;;24.10;84.60;;;;;;4904882;29;20039;-83
2021/09/10 08:16:33;;;;;;;6.93;4.10;;;24.40;83.20;;;;;;4904201;29;20142;-86
2021/09/10 08:18:59;;;;;;;5.63;4.20;;;24.60;81.20;;;;;;4922299;29;20025;-82
2021/09/10 08:21:24;;;;;;;5.70;4.05;;;24.70;81.00;;;;;;4904807;29;20040;-84
2021/09/10 08:23:50;;;;;;;4.68;3.70;;;24.90;79.70;;;;;;4918530;29;20038;-85
2021/09/10 08:26:16;;;;;;;4.47;3.90;;;24.90;79.20;;;;;;4918496;29;20063;-84
2021/09/10 08:28:42;;;;;;;7.30;4.80;;;25.00;78.80;;;;;;4919762;29;20062;-84
2021/09/10 08:31:08;;;;;;;7.28;3.88;;;25.00;79.00;;;;;;4920190;29;20051;-82
2021/09/10 08:33:34;;;;;;;3.95;3.55;;;25.00;78.70;;;;;;4920604;29;20046;-81
2021/09/10 08:36:02;;;;;;;6.57;3.88;;;24.90;78.30;;;;;;4903932;29;20060;-81
2021/09/10 08:38:27;;;;;;;5.22;3.65;;;24.70;79.00;;;;;;4904189;29;20024;-81
2021/09/10 08:40:56;;;;;;;5.45;4.10;;;24.70;79.10;;;;;;4921935;29;20121;-82
2021/09/10 08:43:23;;;;;;;4.50;4.03;;;24.60;78.90;;;;;;4920348;29;20524;-82
2021/09/10 08:45:49;;;;;;;6.90;4.70;;;24.60;79.30;;;;;;4920682;29;20040;-82
2021/09/10 08:48:17;;;;;;;6.43;4.10;;;24.70;79.20;;;;;;4902089;29;20039;-82
2021/09/10 08:50:43;;;;;;;4.25;3.85;;;24.80;79.40;;;;;;4933958;29;20096;-82
2021/09/10 08:53:09;;;;;;;4.75;4.22;;;24.90;78.60;;;;;;4918705;29;20475;-82
2021/09/10 08:55:35;;;;;;;5.82;4.72;;;24.90;78.40;;;;;;4904764;29;20139;-81
2021/09/10 08:58:01;;;;;;;5.57;3.95;;;24.90;78.40;;;;;;4900496;29;20116;-81
2021/09/10 09:00:34;;;;;;;7.03;4.97;;;25.00;78.20;;;;;;4914236;29;20060;-80
2021/09/10 09:03:01;;;;;;;6.65;4.50;;;25.10;78.00;;;;;;4914348;29;20060;-82
2021/09/10 09:05:28;;;;;;;5.18;3.78;;;25.20;77.70;;;;;;4899275;29;20033;-81
2021/09/10 09:08:14;;;;;;;6.93;3.90;;;25.50;77.00;;;;;;4913542;29;20028;-81
2021/09/10 09:10:55;;;;;;;7.75;3.80;;;25.80;76.90;;;;;;4901055;29;20073;-81
2021/09/10 09:13:21;;;;;;;5.45;3.75;;;26.20;75.20;;;;;;4883259;29;20036;-82
2021/09/10 09:15:47;;;;;;;6.28;3.38;;;26.50;75.30;;;;;;4882897;29;20044;-84
2021/09/10 09:18:13;;;;;;;4.85;2.90;;;26.90;73.60;;;;;;4882201;29;20033;-81
2021/09/10 09:20:39;;;;;;;6.28;4.00;;;26.90;73.40;;;;;;4866647;29;20029;-81
2021/09/10 09:23:06;;;;;;;5.57;3.45;;;26.60;72.50;;;;;;4866438;29;20044;-81
2021/09/10 09:25:40;;;;;;;4.18;3.05;;;26.40;73.40;;;;;;4881976;29;20040;-80
2021/09/10 09:28:26;;;;;;;3.65;3.22;;;26.20;73.40;;;;;;4898440;29;20536;-80
2021/09/10 09:30:56;;;;;;;4.20;3.13;;;26.00;73.70;;;;;;4913273;29;20491;-81
2021/09/10 09:33:31;;;;;;;4.05;3.38;;;25.70;74.50;;;;;;4913258;29;20084;-80
2021/09/10 09:35:59;;;;;;;6.07;2.92;;;25.50;74.90;;;;;;4912988;29;20029;-78
2021/09/10 09:38:37;;;;;;;6.55;3.10;;;25.20;75.30;;;;;;4881891;29;20031;-80
2021/09/10 09:41:14;;;;;;;4.88;3.33;;;24.90;76.20;;;;;;4912812;29;20084;-80
2021/09/10 09:44:02;;;;;;;5.68;3.92;;;24.90;76.80;;;;;;4912745;29;20024;-79
2021/09/10 09:46:30;;;;;;;6.85;3.15;;;24.80;77.20;;;;;;4880903;29;20036;-79
2021/09/10 09:49:11;;;;;;;4.75;3.38;;;24.60;77.30;;;;;;4912854;29;20022;-80
2021/09/10 09:51:55;;;;;;;6.00;3.13;;;24.40;78.20;;;;;;4913484;29;20044;-80
2021/09/10 09:54:21;;;;;;;5.60;3.13;;;24.20;78.70;;;;;;4901639;29;20048;-79
2021/09/10 09:56:47;;;;;;;3.92;2.97;;;24.10;78.90;;;;;;4916002;29;20024;-79
2021/09/10 09:59:15;;;;;;;5.10;2.85;;;24.10;79.50;;;;;;4916976;29;20052;-80
2021/09/10 10:01:41;;;;;;;4.18;3.05;;;24.00;79.60;;;;;;4900155;29;20043;-78
2021/09/10 10:04:07;;;;;;;4.53;2.80;;;23.90;79.80;;;;;;4916005;29;20119;-79
2021/09/10 10:06:34;;;;;;;4.38;2.92;;;23.70;80.00;;;;;;4916312;29;20108;-78
2021/09/10 10:09:06;;;;;;;4.53;3.00;;;23.70;80.40;;;;;;4932324;29;20035;-78
2021/09/10 10:11:39;;;;;;;3.50;2.23;;;23.70;80.50;;;;;;4931697;29;20088;-79
2021/09/10 10:14:06;;;;;;;6.43;2.97;;;23.80;80.30;;;;;;4917411;29;20291;-77
2021/09/10 10:16:35;;;;;;;4.53;1.98;;;23.90;80.10;;;;;;4916130;29;20032;-77
2021/09/10 10:19:03;;;;;;;4.13;2.05;;;23.90;79.90;;;;;;4917139;29;20020;-78
2021/09/10 10:21:53;;;;;;;3.67;2.50;;;24.00;80.00;;;;;;4931874;29;20036;-78
2021/09/10 10:24:41;;;;;;;3.67;1.90;;;24.20;79.80;;;;;;4899794;29;20035;-79
2021/09/10 10:27:32;;;;;;;2.33;1.77;;;24.30;78.50;;;;;;4899605;29;20028;-78
2021/09/10 10:29:59;;;;;;;3.28;1.63;;;24.20;78.60;;;;;;4900335;29;20464;-82
2021/09/10 10:32:33;;;;;;;3.97;1.55;;;24.10;78.60;;;;;;4900709;29;20032;-79
2021/09/10 10:35:19;;;;;;;3.65;1.45;;;24.10;78.40;;;;;;4916519;29;20417;-82
2021/09/10 10:37:56;;;;;;;3.35;1.80;;;24.20;78.90;;;;;;4900006;29;20059;-79
2021/09/10 10:40:37;;;;;;;4.03;2.22;;;24.40;78.90;;;;;;4900605;29;20028;-78
2021/09/10 10:43:06;;;;;;;4.63;2.00;;;24.40;78.00;;;;;;4915618;29;20040;-81
2021/09/10 10:45:47;;;;;;;3.67;1.63;;;24.10;79.20;;;;;;4900238;29;20057;-79
2021/09/10 10:48:33;;;;;;;6.32;2.53;;;24.10;80.20;;;;;;4918583;29;20103;-79
2021/09/10 10:51:03;;;;;;;3.72;1.90;;;24.00;79.80;;;;;;4919995;29;20399;-80
2021/09/10 10:53:52;;;;;;;4.85;2.30;;;23.90;80.50;;;;;;4934718;29;20051;-79
2021/09/10 10:56:32;;;;;;;4.93;2.28;;;23.80;81.60;;;;;;4920218;29;20499;-78
2021/09/10 10:59:15;;;;;;;4.50;2.70;;;23.60;82.50;;;;;;4903309;29;20024;-79
2021/09/10 11:02:20;;;;;;;3.00;2.40;;;23.30;84.20;;;;;;4920171;29;20032;-82
2021/09/10 11:05:20;;;;;;;2.83;2.45;;;23.40;86.10;;;;;;4922200;29;20028;-80
2021/09/10 11:07:46;;;;;;;4.00;3.03;;;23.50;86.20;;;;;;4936670;29;20028;-80
2021/09/10 11:10:15;;;;;;;3.42;2.70;;;23.70;86.30;;;;;;4905768;29;20377;-82
2021/09/10 11:12:44;;;;;;;3.75;2.75;;;23.90;85.90;;;;;;4936544;29;20382;-82
2021/09/10 11:15:31;;;;;;;2.90;2.45;;;23.90;85.30;;;;;;4921113;29;20031;-81
2021/09/10 11:18:03;;;;;;;3.63;2.70;;;23.90;84.70;;;;;;4936845;29;20507;-82
2021/09/10 11:20:31;;;;;;;3.47;2.90;;;23.90;84.80;;;;;;4921881;29;20032;-81
2021/09/10 11:22:57;;;;;;;4.47;2.90;;;24.20;85.40;;;;;;4904675;29;20035;-81
2021/09/10 11:25:25;;;;;;;4.00;2.40;;;24.40;83.00;;;;;;4936799;29;20168;-79
2021/09/10 11:27:51;;;;;;;3.50;2.35;;;24.70;82.80;;;;;;4888812;29;20035;-80
2021/09/10 11:30:21;;;;;;;5.60;3.03;;;25.00;81.40;;;;;;4920527;29;20032;-81
2021/09/10 11:33:11;;;;;;;3.90;2.55;;;25.40;79.60;;;;;;4923211;29;20092;-79
2021/09/10 11:35:40;;;;;;;2.72;2.00;;;25.40;79.40;;;;;;4892101;29;20036;-80
2021/09/10 11:38:15;;;;;;;5.47;2.75;;;25.50;79.60;;;;;;4936454;29;20024;-83
2021/09/10 11:40:56;;;;;;;3.35;2.90;;;25.60;78.70;;;;;;4936681;29;20103;-80
2021/09/10 11:43:34;;;;;;;3.25;2.70;;;25.60;79.30;;;;;;4936796;29;20036;-80
2021/09/10 11:46:04;;;;;;;4.05;2.90;;;25.80;78.90;;;;;;4889685;29;20472;-85
2021/09/10 11:48:38;;;;;;;2.85;2.60;;;26.20;77.30;;;;;;4904333;29;20024;-80
2021/09/10 11:51:09;;;;;;;2.78;2.00;;;26.50;76.20;;;;;;4904310;29;20024;-82
2021/09/10 11:53:53;;;;;;;3.55;2.38;;;26.80;75.90;;;;;;4903471;29;20484;-80
2021/09/10 11:56:32;;;;;;;4.88;2.05;;;27.00;75.00;;;;;;4900742;29;20064;-80
2021/09/10 11:58:58;;;;;;;3.63;2.10;;;27.20;73.40;;;;;;4915971;29;20468;-81
2021/09/10 12:01:36;;;;;;;5.15;2.63;;;27.10;72.20;;;;;;4899428;29;20033;-80
2021/09/10 12:04:07;;;;;;;2.75;2.17;;;26.90;72.90;;;;;;4884561;29;20025;-81
2021/09/10 12:06:45;;;;;;;3.17;2.37;;;26.70;73.30;;;;;;4916223;29;20031;-82
2021/09/10 12:09:23;;;;;;;3.47;2.10;;;26.60;73.50;;;;;;4915690;29;20021;-83
2021/09/10 12:12:14;;;;;;;2.85;2.55;;;26.50;73.30;;;;;;4884253;29;20068;-82
2021/09/10 12:14:52;;;;;;;3.42;2.20;;;26.40;73.60;;;;;;4883964;29;20471;-82
2021/09/10 12:17:21;;;;;;;3.45;2.45;;;26.30;74.10;;;;;;4884932;29;20032;-82
2021/09/10 12:20:11;;;;;;;3.00;2.00;;;26.30;74.00;;;;;;4915378;29;20039;-82
2021/09/10 12:22:42;;;;;;;4.97;2.50;;;26.20;74.00;;;;;;4884075;29;20036;-82
2021/09/10 12:25:38;;;;;;;3.47;2.17;;;25.90;73.90;;;;;;4883832;29;20489;-81
2021/09/10 12:28:03;;;;;;;2.63;2.28;;;25.70;74.10;;;;;;4916949;29;20621;-82
2021/09/10 12:30:35;;;;;;;2.83;2.50;;;25.70;74.60;;;;;;4883798;29;20032;-82
2021/09/10 12:33:03;;;;;;;3.42;3.08;;;25.60;74.90;;;;;;4915586;29;20451;-82
2021/09/10 12:35:29;;;;;;;2.97;2.65;;;25.60;75.50;;;;;;4899185;29;20191;-82
2021/09/10 12:37:59;;;;;;;4.30;2.65;;;25.60;76.50;;;;;;4867347;29;20037;-83
2021/09/10 12:40:29;;;;;;;2.83;2.33;;;25.50;77.30;;;;;;4899785;29;20036;-82
2021/09/10 12:42:55;;;;;;;2.83;1.60;;;25.40;77.30;;;;;;4914193;29;20128;-81
2021/09/10 12:45:22;;;;;;;3.05;1.50;;;25.20;77.40;;;;;;4898826;29;20040;-80
2021/09/10 12:47:48;;;;;;;2.63;1.70;;;25.00;77.80;;;;;;4899681;29;20032;-81